Time;durP1;ratioP1;P1;durP2;ratioP2;P2;SDS_P1;SDS_P2;PMS_P1;PMS_P2;Temp;Humidity;BMP_temperature;BMP_pressure;BME280_temperature;BME280_humidity;BME280_pressure;Samples;Min_cycle;Max_cycle;Signal;HPM_P1;HPM_P2
2021/08/12 00:01:54;;;;;;;56.05;35.47;;;16.00;99.90;;;;;;5053390;28;20481;-65
2021/08/12 00:04:19;;;;;;;53.92;33.50;;;15.90;99.90;;;;;;5059986;28;20048;-65
2021/08/12 00:06:46;;;;;;;47.60;32.03;;;15.90;99.90;;;;;;5052707;28;20492;-65
2021/08/12 00:09:12;;;;;;;48.60;32.47;;;15.80;99.90;;;;;;5060037;28;20053;-65
2021/08/12 00:11:39;;;;;;;55.85;37.97;;;15.90;99.90;;;;;;5052788;28;20040;-65
2021/08/12 00:14:05;;;;;;;60.67;41.45;;;15.90;99.90;;;;;;5060139;28;20040;-65
2021/08/12 00:16:34;;;;;;;62.30;39.83;;;15.90;99.90;;;;;;5052494;28;20040;-65
2021/08/12 00:19:01;;;;;;;52.00;34.63;;;15.90;99.90;;;;;;5052400;28;20049;-66
2021/08/12 00:21:28;;;;;;;54.67;36.25;;;15.90;99.90;;;;;;5051081;28;20103;-66
2021/08/12 00:23:54;;;;;;;45.47;32.45;;;15.80;99.90;;;;;;5058269;28;20108;-66
2021/08/12 00:26:20;;;;;;;40.03;30.33;;;15.70;99.90;;;;;;5064597;28;20048;-66
2021/08/12 00:28:46;;;;;;;44.55;31.08;;;15.70;99.90;;;;;;5057427;28;20106;-65
2021/08/12 00:31:11;;;;;;;41.15;30.80;;;15.70;99.90;;;;;;5064530;28;20045;-65
2021/08/12 00:33:38;;;;;;;45.67;34.78;;;15.60;99.90;;;;;;5057398;28;20073;-66
2021/08/12 00:36:04;;;;;;;46.72;34.33;;;15.70;99.90;;;;;;5063652;28;20044;-65
2021/08/12 00:38:30;;;;;;;52.10;36.55;;;15.70;99.90;;;;;;5058338;28;20052;-65
2021/08/12 00:40:56;;;;;;;51.28;35.05;;;15.70;99.90;;;;;;5060029;28;20076;-65
2021/08/12 00:43:22;;;;;;;58.90;36.90;;;15.70;99.90;;;;;;5053176;28;20048;-65
2021/08/12 00:45:48;;;;;;;38.33;29.23;;;15.70;99.90;;;;;;5063927;28;20064;-65
2021/08/12 00:48:13;;;;;;;45.95;32.63;;;15.60;99.90;;;;;;5061319;28;20508;-65
2021/08/12 00:50:41;;;;;;;38.08;29.15;;;15.70;99.90;;;;;;5058860;28;20095;-65
2021/08/12 00:53:10;;;;;;;42.72;30.52;;;15.60;99.90;;;;;;5056109;28;20065;-65
2021/08/12 00:55:44;;;;;;;40.20;30.00;;;15.70;99.90;;;;;;5056178;28;20044;-65
2021/08/12 00:58:13;;;;;;;49.10;33.80;;;15.60;99.90;;;;;;5056249;28;20092;-65
2021/08/12 01:00:38;;;;;;;47.88;34.47;;;15.60;99.90;;;;;;5055236;28;20044;-65
2021/08/12 01:03:09;;;;;;;39.85;30.15;;;15.50;99.90;;;;;;5061392;28;20045;-65
2021/08/12 01:05:56;;;;;;;53.05;33.58;;;15.50;99.90;;;;;;5056492;28;20073;-65
2021/08/12 01:08:36;;;;;;;48.25;33.85;;;15.60;99.90;;;;;;5060242;28;20047;-65
2021/08/12 01:11:40;;;;;;;72.80;43.25;;;15.60;99.90;;;;;;5060766;28;20041;-65
2021/08/12 01:14:18;;;;;;;94.10;50.80;;;15.60;99.90;;;;;;5060439;28;20041;-65
2021/08/12 01:16:54;;;;;;;112.38;58.15;;;15.60;99.90;;;;;;5059011;28;20068;-65
2021/08/12 01:20:00;;;;;;;126.10;62.13;;;15.70;99.90;;;;;;5061587;28;20599;-65
2021/08/12 01:22:27;;;;;;;125.75;65.18;;;15.70;99.90;;;;;;5059930;28;20110;-65
2021/08/12 01:24:59;;;;;;;121.18;61.45;;;15.80;99.90;;;;;;5052928;28;20073;-65
2021/08/12 01:27:31;;;;;;;99.78;55.30;;;15.80;99.90;;;;;;5059439;28;20093;-65
2021/08/12 01:30:03;;;;;;;127.30;61.60;;;15.80;99.90;;;;;;5052229;28;20045;-65
2021/08/12 01:32:52;;;;;;;130.02;65.45;;;15.80;99.90;;;;;;5059485;28;20052;-65
2021/08/12 01:35:21;;;;;;;138.25;68.72;;;15.80;99.90;;;;;;5032132;28;20112;-65
2021/08/12 01:37:49;;;;;;;191.02;78.70;;;15.80;99.90;;;;;;5060324;28;20123;-65
2021/08/12 01:40:18;;;;;;;124.07;64.63;;;15.90;99.90;;;;;;5064126;28;20040;-66
2021/08/12 01:42:44;;;;;;;143.68;64.75;;;15.80;99.90;;;;;;5058556;28;20076;-65
2021/08/12 01:45:13;;;;;;;130.73;64.18;;;15.80;99.90;;;;;;5048279;28;20300;-65
2021/08/12 01:47:41;;;;;;;126.75;59.58;;;15.70;99.90;;;;;;5057420;28;20060;-65
2021/08/12 01:50:13;;;;;;;121.15;61.13;;;15.60;99.90;;;;;;5050183;28;20060;-65
2021/08/12 01:52:43;;;;;;;131.38;63.08;;;15.60;99.90;;;;;;5057780;28;20049;-65
2021/08/12 01:55:10;;;;;;;185.27;78.10;;;15.60;99.90;;;;;;5050854;28;20060;-65
2021/08/12 01:57:40;;;;;;;152.32;69.63;;;15.70;99.90;;;;;;5057691;28;20045;-65
2021/08/12 02:00:09;;;;;;;125.43;63.65;;;15.70;99.90;;;;;;5050444;28;20276;-65
2021/08/12 02:02:35;;;;;;;147.57;65.03;;;15.80;99.90;;;;;;5057317;28;20049;-65
2021/08/12 02:05:02;;;;;;;129.95;60.83;;;15.80;99.90;;;;;;5050019;28;20076;-65
2021/08/12 02:07:28;;;;;;;130.13;60.05;;;15.70;99.90;;;;;;5056975;28;20052;-65
2021/08/12 02:09:55;;;;;;;124.93;59.70;;;15.60;99.90;;;;;;5050574;28;20131;-65
2021/08/12 02:12:21;;;;;;;133.88;61.88;;;15.50;99.90;;;;;;5055223;28;20041;-65
2021/08/12 02:14:47;;;;;;;121.00;58.00;;;15.50;99.90;;;;;;5067216;28;20492;-65
2021/08/12 02:17:13;;;;;;;162.32;66.47;;;15.40;99.90;;;;;;5059955;28;20048;-65
2021/08/12 02:19:39;;;;;;;125.35;57.35;;;15.30;99.90;;;;;;5064929;28;20041;-65
2021/08/12 02:22:14;;;;;;;160.27;63.88;;;15.30;99.90;;;;;;5059007;28;20079;-65
2021/08/12 02:24:51;;;;;;;137.18;61.03;;;15.20;99.90;;;;;;5066775;28;20083;-65
2021/08/12 02:27:21;;;;;;;151.50;63.03;;;15.30;99.90;;;;;;5059169;28;20120;-65
2021/08/12 02:29:52;;;;;;;140.15;62.53;;;15.30;99.90;;;;;;5066317;28;20104;-65
2021/08/12 02:32:20;;;;;;;138.60;62.58;;;15.30;99.90;;;;;;5058944;28;20046;-65
2021/08/12 02:34:49;;;;;;;130.60;59.10;;;15.20;99.90;;;;;;5065685;28;20064;-65
2021/08/12 02:37:18;;;;;;;143.05;62.10;;;15.20;99.90;;;;;;5058421;28;20061;-65
2021/08/12 02:39:44;;;;;;;134.27;58.88;;;15.10;99.90;;;;;;5054272;28;20037;-64
2021/08/12 02:42:11;;;;;;;137.88;59.88;;;15.10;99.90;;;;;;5060087;28;20323;-64
2021/08/12 02:44:40;;;;;;;139.23;58.08;;;15.10;99.90;;;;;;5064127;28;20051;-64
2021/08/12 02:47:07;;;;;;;138.50;58.08;;;15.00;99.90;;;;;;5061362;28;20044;-64
2021/08/12 02:49:41;;;;;;;125.80;55.83;;;15.00;99.90;;;;;;5062371;28;20040;-64
2021/08/12 02:52:08;;;;;;;160.30;62.75;;;14.90;99.90;;;;;;5061031;28;20049;-64
2021/08/12 02:54:34;;;;;;;108.55;54.53;;;14.90;99.90;;;;;;5061494;28;20060;-64
2021/08/12 02:57:03;;;;;;;102.25;52.38;;;14.90;99.90;;;;;;5062789;28;20045;-64
2021/08/12 02:59:29;;;;;;;135.20;58.55;;;14.90;99.90;;;;;;5060575;28;20055;-64
2021/08/12 03:01:56;;;;;;;108.53;55.08;;;15.00;99.90;;;;;;5063651;28;20476;-64
2021/08/12 03:04:22;;;;;;;99.20;49.63;;;15.00;99.90;;;;;;5058497;28;20055;-64
2021/08/12 03:06:57;;;;;;;118.10;57.60;;;15.00;99.90;;;;;;5064491;28;20048;-64
2021/08/12 03:09:24;;;;;;;134.63;58.67;;;15.10;99.90;;;;;;5058333;28;20130;-64
2021/08/12 03:11:52;;;;;;;119.60;59.47;;;15.00;99.90;;;;;;5064883;28;20045;-64
2021/08/12 03:14:18;;;;;;;117.93;57.47;;;15.10;99.90;;;;;;5053658;28;20497;-64
2021/08/12 03:16:45;;;;;;;188.82;70.50;;;15.20;99.90;;;;;;5060539;28;20146;-64
2021/08/12 03:19:11;;;;;;;131.18;60.08;;;15.20;99.90;;;;;;5052875;28;20049;-64
2021/08/12 03:21:36;;;;;;;144.73;63.50;;;15.20;99.90;;;;;;5060355;28;20047;-64
2021/08/12 03:24:04;;;;;;;127.30;58.45;;;15.20;99.90;;;;;;5052620;28;20045;-64
2021/08/12 03:26:31;;;;;;;115.10;54.13;;;15.20;99.90;;;;;;5059537;28;20076;-64
2021/08/12 03:28:57;;;;;;;124.43;55.53;;;15.10;99.90;;;;;;5065947;28;20044;-64
2021/08/12 03:31:23;;;;;;;122.25;55.97;;;15.10;99.90;;;;;;5061166;28;20044;-64
2021/08/12 03:33:49;;;;;;;119.13;55.70;;;15.10;99.90;;;;;;5065293;28;20037;-64
2021/08/12 03:36:14;;;;;;;112.95;53.47;;;15.20;99.90;;;;;;5057507;28;20408;-64
2021/08/12 03:38:40;;;;;;;109.20;49.70;;;15.20;99.90;;;;;;5065690;28;20041;-64
2021/08/12 03:41:06;;;;;;;117.45;54.42;;;15.10;99.90;;;;;;5058332;28;20061;-64
2021/08/12 03:43:32;;;;;;;131.55;56.28;;;15.10;99.90;;;;;;5064562;28;20041;-63
2021/08/12 03:45:59;;;;;;;109.68;51.60;;;15.00;99.90;;;;;;5061651;28;20492;-64
2021/08/12 03:48:25;;;;;;;110.40;52.13;;;15.10;99.90;;;;;;5061985;28;20051;-64
2021/08/12 03:50:51;;;;;;;124.18;54.22;;;15.10;99.90;;;;;;5057430;28;20128;-64
2021/08/12 03:53:16;;;;;;;115.00;52.72;;;15.10;99.90;;;;;;5052385;28;20041;-64
2021/08/12 03:55:43;;;;;;;107.25;55.80;;;15.10;99.90;;;;;;5059531;28;20053;-64
2021/08/12 03:58:10;;;;;;;110.15;53.20;;;15.20;99.90;;;;;;5062574;28;20100;-64
2021/08/12 04:00:35;;;;;;;103.50;50.95;;;15.20;99.90;;;;;;5061038;28;20060;-63
2021/08/12 04:03:01;;;;;;;111.95;55.25;;;15.20;99.90;;;;;;5060451;28;20068;-64
2021/08/12 04:05:27;;;;;;;105.50;51.40;;;15.20;99.90;;;;;;5061677;28;20057;-63
2021/08/12 04:07:53;;;;;;;114.53;57.03;;;15.20;99.90;;;;;;5058133;28;20048;-64
2021/08/12 04:10:18;;;;;;;112.10;54.10;;;15.30;99.90;;;;;;5063893;28;20043;-64
2021/08/12 04:12:45;;;;;;;110.55;54.22;;;15.30;99.90;;;;;;5053688;28;20044;-64
2021/08/12 04:15:12;;;;;;;97.60;49.35;;;15.30;99.90;;;;;;5056384;28;20041;-64
2021/08/12 04:17:38;;;;;;;105.80;53.22;;;15.30;99.90;;;;;;5066015;28;20056;-64
2021/08/12 04:20:05;;;;;;;92.25;48.05;;;15.30;99.90;;;;;;5059039;28;20075;-64
2021/08/12 04:22:31;;;;;;;109.75;51.90;;;15.20;99.90;;;;;;5051853;28;20045;-63
2021/08/12 04:24:57;;;;;;;98.65;48.83;;;15.30;99.90;;;;;;5061947;28;20108;-63
2021/08/12 04:27:22;;;;;;;102.68;49.25;;;15.20;99.90;;;;;;5051424;28;20071;-63
2021/08/12 04:29:48;;;;;;;77.95;45.42;;;15.20;99.90;;;;;;5058558;28;20123;-64
2021/08/12 04:32:14;;;;;;;93.07;48.67;;;15.10;99.90;;;;;;5051376;28;20521;-64
2021/08/12 04:34:40;;;;;;;93.90;48.25;;;15.20;99.90;;;;;;5058389;28;20055;-64
2021/08/12 04:37:06;;;;;;;83.47;44.97;;;15.20;99.90;;;;;;5054714;28;20071;-64
2021/08/12 04:39:32;;;;;;;82.95;46.13;;;15.20;99.90;;;;;;5063913;28;20432;-65
2021/08/12 04:41:57;;;;;;;61.50;36.33;;;15.20;99.90;;;;;;5054562;28;20056;-64
2021/08/12 04:44:24;;;;;;;70.70;41.57;;;15.20;99.90;;;;;;5060587;28;20112;-63
2021/08/12 04:46:50;;;;;;;66.95;39.63;;;15.20;99.90;;;;;;5056651;28;20323;-63
2021/08/12 04:49:16;;;;;;;91.05;47.28;;;15.20;99.90;;;;;;5052925;28;20045;-63
2021/08/12 04:51:44;;;;;;;69.78;42.25;;;15.20;99.90;;;;;;5057375;28;20054;-65
2021/08/12 04:54:10;;;;;;;85.60;44.25;;;15.20;99.90;;;;;;5051645;28;20505;-63
2021/08/12 04:56:37;;;;;;;72.50;43.67;;;15.20;99.90;;;;;;5060372;28;20049;-64
2021/08/12 04:59:03;;;;;;;65.65;40.50;;;15.20;99.90;;;;;;5063633;28;20607;-63
2021/08/12 05:01:29;;;;;;;74.63;44.63;;;15.30;99.90;;;;;;5062147;28;20590;-64
2021/08/12 05:03:55;;;;;;;79.05;43.80;;;15.40;99.90;;;;;;5062532;28;20067;-63
2021/08/12 05:06:21;;;;;;;68.93;42.08;;;15.40;99.90;;;;;;5070552;28;20040;-65
2021/08/12 05:08:46;;;;;;;74.82;43.38;;;15.50;99.90;;;;;;5062940;28;20045;-65
2021/08/12 05:11:15;;;;;;;63.08;38.38;;;15.50;99.90;;;;;;5056556;28;20042;-65
2021/08/12 05:13:45;;;;;;;57.22;37.03;;;15.50;99.90;;;;;;5054363;28;20045;-63
2021/08/12 05:16:10;;;;;;;49.72;34.30;;;15.50;99.90;;;;;;5063914;28;20041;-64
2021/08/12 05:18:36;;;;;;;48.17;33.10;;;15.50;99.90;;;;;;5061378;28;20061;-64
2021/08/12 05:21:02;;;;;;;61.15;36.40;;;15.60;99.90;;;;;;5063204;28;20072;-64
2021/08/12 05:23:36;;;;;;;43.67;30.08;;;15.70;99.90;;;;;;5060599;28;20048;-64
2021/08/12 05:26:02;;;;;;;45.70;31.40;;;15.70;99.90;;;;;;5060524;28;21219;-64
2021/08/12 05:28:28;;;;;;;37.92;26.73;;;15.70;99.90;;;;;;5060486;28;20037;-65
2021/08/12 05:30:54;;;;;;;36.55;25.00;;;15.70;99.90;;;;;;5058141;28;20071;-65
2021/08/12 05:33:19;;;;;;;38.13;27.77;;;15.70;99.90;;;;;;5074614;28;20047;-65
2021/08/12 05:35:45;;;;;;;41.13;28.88;;;15.70;99.90;;;;;;5060655;28;20041;-64
2021/08/12 05:38:13;;;;;;;34.10;24.95;;;15.80;99.90;;;;;;5066588;28;20047;-64
2021/08/12 05:40:40;;;;;;;28.80;21.65;;;15.80;99.90;;;;;;5069616;28;20045;-65
2021/08/12 05:43:05;;;;;;;23.05;18.85;;;15.90;99.90;;;;;;5059773;28;20042;-65
2021/08/12 05:45:31;;;;;;;31.58;21.92;;;15.90;99.90;;;;;;5061391;28;20040;-65
2021/08/12 05:47:57;;;;;;;26.38;21.13;;;16.10;99.90;;;;;;5053303;28;20044;-65
2021/08/12 05:50:23;;;;;;;22.67;17.33;;;16.20;99.90;;;;;;5064815;28;20547;-65
2021/08/12 05:52:48;;;;;;;22.17;16.50;;;16.40;99.90;;;;;;5057491;28;20057;-65
2021/08/12 05:55:14;;;;;;;22.23;16.83;;;16.50;99.90;;;;;;5059591;28;20041;-65
2021/08/12 05:57:40;;;;;;;19.98;15.35;;;16.60;99.90;;;;;;5060213;28;20079;-65
2021/08/12 06:00:08;;;;;;;21.05;14.38;;;16.80;99.90;;;;;;5061120;28;20037;-65
2021/08/12 06:02:34;;;;;;;20.30;15.50;;;16.90;99.90;;;;;;5057027;28;20041;-65
2021/08/12 06:04:59;;;;;;;19.58;14.10;;;17.00;99.90;;;;;;5058924;28;20036;-67
2021/08/12 06:07:25;;;;;;;20.83;15.60;;;17.00;99.90;;;;;;5058246;28;20074;-62
2021/08/12 06:09:52;;;;;;;21.83;14.15;;;17.00;99.90;;;;;;5060225;28;20048;-62
2021/08/12 06:12:18;;;;;;;21.30;14.30;;;17.10;99.90;;;;;;5060340;28;20045;-62
2021/08/12 06:14:44;;;;;;;19.05;13.73;;;17.10;99.90;;;;;;5052546;28;20048;-62
2021/08/12 06:17:10;;;;;;;18.13;12.93;;;17.30;99.90;;;;;;5059064;28;20052;-62
2021/08/12 06:19:36;;;;;;;14.90;12.43;;;17.40;99.90;;;;;;5051878;28;20048;-62
2021/08/12 06:22:02;;;;;;;18.23;12.57;;;17.50;99.90;;;;;;5057696;28;20103;-62
2021/08/12 06:24:27;;;;;;;20.10;13.57;;;17.70;99.90;;;;;;5047472;28;20052;-62
2021/08/12 06:26:53;;;;;;;18.02;13.25;;;17.80;99.90;;;;;;5056482;28;20485;-62
2021/08/12 06:29:19;;;;;;;20.77;12.43;;;17.90;99.90;;;;;;5049427;28;20045;-62
2021/08/12 06:31:45;;;;;;;19.60;12.98;;;17.90;99.90;;;;;;5056124;28;20048;-63
2021/08/12 06:34:10;;;;;;;14.65;11.82;;;18.00;99.90;;;;;;5062220;28;20049;-62
2021/08/12 06:36:36;;;;;;;19.40;11.68;;;18.10;99.90;;;;;;5054809;28;20045;-62
2021/08/12 06:39:02;;;;;;;17.48;11.20;;;18.30;99.90;;;;;;5062158;28;20444;-62
2021/08/12 06:41:29;;;;;;;17.38;10.00;;;18.50;99.90;;;;;;5054412;28;20049;-62
2021/08/12 06:43:55;;;;;;;18.52;10.40;;;18.70;99.90;;;;;;5061644;28;20068;-63
2021/08/12 06:46:21;;;;;;;16.20;10.48;;;18.80;99.90;;;;;;5053831;28;20091;-62
2021/08/12 06:48:48;;;;;;;16.92;10.75;;;18.90;99.90;;;;;;5061203;28;20113;-62
2021/08/12 06:51:14;;;;;;;15.35;10.57;;;18.90;99.90;;;;;;5052459;28;20045;-62
2021/08/12 06:53:40;;;;;;;12.85;10.40;;;19.10;99.90;;;;;;5059600;28;20056;-62
2021/08/12 06:56:07;;;;;;;13.27;10.05;;;19.20;99.90;;;;;;5062041;28;20048;-62
2021/08/12 06:58:34;;;;;;;13.77;9.73;;;19.50;99.90;;;;;;5059702;28;20078;-62
2021/08/12 07:01:00;;;;;;;17.15;9.77;;;19.70;99.90;;;;;;5056435;28;20101;-62
2021/08/12 07:03:31;;;;;;;15.25;9.20;;;19.90;99.90;;;;;;5053388;28;20053;-62
2021/08/12 07:05:57;;;;;;;13.57;9.30;;;20.00;99.90;;;;;;5055816;28;20083;-62
2021/08/12 07:08:22;;;;;;;11.38;8.75;;;20.10;99.90;;;;;;5059559;28;20045;-62
2021/08/12 07:10:48;;;;;;;12.98;10.48;;;20.10;99.90;;;;;;5063736;28;20130;-62
2021/08/12 07:13:14;;;;;;;11.82;9.10;;;20.00;99.90;;;;;;5057595;28;20060;-62
2021/08/12 07:15:40;;;;;;;11.60;9.27;;;20.00;99.90;;;;;;5061135;28;20104;-62
2021/08/12 07:18:06;;;;;;;14.20;9.02;;;20.10;99.90;;;;;;5059240;28;20106;-62
2021/08/12 07:20:36;;;;;;;13.07;9.98;;;20.20;99.90;;;;;;5058008;28;20041;-62
2021/08/12 07:23:02;;;;;;;14.40;10.52;;;20.20;99.90;;;;;;5059918;28;20049;-62
2021/08/12 07:25:28;;;;;;;13.77;9.45;;;20.20;99.90;;;;;;5056246;28;20065;-62
2021/08/12 07:27:54;;;;;;;18.15;9.82;;;20.20;99.90;;;;;;5061435;28;20049;-62
2021/08/12 07:30:20;;;;;;;16.17;9.40;;;20.40;99.90;;;;;;5054701;28;20041;-62
2021/08/12 07:32:46;;;;;;;15.25;9.00;;;20.50;99.90;;;;;;5064120;28;20131;-61
2021/08/12 07:35:12;;;;;;;15.30;10.00;;;20.70;99.90;;;;;;5061450;28;20077;-62
2021/08/12 07:37:38;;;;;;;19.13;9.52;;;20.80;99.90;;;;;;5059619;28;20052;-62
2021/08/12 07:40:04;;;;;;;16.48;9.73;;;21.10;99.90;;;;;;5052479;28;20049;-62
2021/08/12 07:42:30;;;;;;;16.85;10.77;;;21.20;99.90;;;;;;5060223;28;20064;-62
2021/08/12 07:45:00;;;;;;;12.60;9.85;;;21.20;99.90;;;;;;5064147;28;20049;-62
2021/08/12 07:47:26;;;;;;;15.70;10.38;;;21.20;99.90;;;;;;5058384;28;20076;-62
2021/08/12 07:49:52;;;;;;;13.93;10.20;;;21.30;99.90;;;;;;5064766;28;20056;-62
2021/08/12 07:52:18;;;;;;;17.52;10.65;;;21.30;99.90;;;;;;5065804;28;20088;-62
2021/08/12 07:54:46;;;;;;;14.02;10.52;;;21.40;99.90;;;;;;5063569;28;20078;-62
2021/08/12 07:57:12;;;;;;;15.13;10.65;;;21.50;99.90;;;;;;5057525;28;20053;-62
2021/08/12 07:59:37;;;;;;;15.27;10.88;;;21.70;99.90;;;;;;5063216;28;20098;-62
2021/08/12 08:02:04;;;;;;;16.30;10.45;;;21.90;99.90;;;;;;5054938;28;20075;-62
2021/08/12 08:04:29;;;;;;;14.48;10.80;;;22.00;99.90;;;;;;5060697;28;20093;-62
2021/08/12 08:06:55;;;;;;;18.40;9.52;;;21.90;99.90;;;;;;5054199;28;20041;-62
2021/08/12 08:09:21;;;;;;;12.20;9.73;;;22.20;99.90;;;;;;5077148;28;20056;-61
2021/08/12 08:11:47;;;;;;;12.02;9.45;;;22.30;99.90;;;;;;5063180;28;20041;-62
2021/08/12 08:14:12;;;;;;;12.27;10.25;;;22.50;99.90;;;;;;5054225;28;20096;-62
2021/08/12 08:16:38;;;;;;;13.95;9.88;;;22.50;99.90;;;;;;5063903;28;20051;-62
2021/08/12 08:19:04;;;;;;;12.13;9.15;;;22.30;99.90;;;;;;5056389;28;20067;-62
2021/08/12 08:21:30;;;;;;;12.75;9.07;;;22.00;99.90;;;;;;5062068;28;20074;-62
2021/08/12 08:23:55;;;;;;;17.23;9.68;;;21.80;99.90;;;;;;5055082;28;20045;-62
2021/08/12 08:26:21;;;;;;;14.48;9.48;;;21.70;99.90;;;;;;5061920;28;20408;-62
2021/08/12 08:28:47;;;;;;;11.48;8.73;;;21.80;99.90;;;;;;5054288;28;20417;-62
2021/08/12 08:31:13;;;;;;;11.80;8.52;;;21.90;99.90;;;;;;5061468;28;20045;-62
2021/08/12 08:33:39;;;;;;;10.98;8.75;;;22.00;99.90;;;;;;5064080;28;20048;-62
2021/08/12 08:36:05;;;;;;;16.80;9.48;;;22.20;99.90;;;;;;5059422;28;20485;-62
2021/08/12 08:38:31;;;;;;;14.60;9.93;;;22.50;99.90;;;;;;5056610;28;20049;-62
2021/08/12 08:40:57;;;;;;;11.18;8.63;;;22.60;99.90;;;;;;5055667;28;20053;-62
2021/08/12 08:43:26;;;;;;;15.43;9.63;;;22.70;99.90;;;;;;5058015;28;20042;-62
2021/08/12 08:45:55;;;;;;;13.32;9.07;;;22.50;99.90;;;;;;5056041;28;20044;-62
2021/08/12 08:48:24;;;;;;;15.50;9.63;;;22.40;99.90;;;;;;5058202;28;20544;-62
2021/08/12 08:50:51;;;;;;;12.77;9.00;;;22.40;99.90;;;;;;5051429;28;20046;-62
2021/08/12 08:53:18;;;;;;;13.32;9.80;;;22.60;99.90;;;;;;5044976;28;20101;-62
2021/08/12 08:55:44;;;;;;;15.75;9.65;;;22.70;99.90;;;;;;5051616;28;20080;-62
2021/08/12 08:58:11;;;;;;;18.80;10.20;;;22.90;99.90;;;;;;5062043;28;20049;-62
2021/08/12 09:00:38;;;;;;;14.00;9.45;;;23.10;99.90;;;;;;5069901;28;20045;-62
2021/08/12 09:03:04;;;;;;;15.63;8.68;;;23.20;99.90;;;;;;5054743;28;20046;-62
2021/08/12 09:05:30;;;;;;;13.65;8.43;;;23.30;99.90;;;;;;5054796;28;20056;-62
2021/08/12 09:07:58;;;;;;;10.85;7.55;;;23.50;99.90;;;;;;5056995;28;20108;-62
2021/08/12 09:10:24;;;;;;;12.32;7.78;;;23.50;99.90;;;;;;5062066;28;20112;-62
2021/08/12 09:12:49;;;;;;;10.20;7.53;;;23.40;99.90;;;;;;5047211;28;20060;-62
2021/08/12 09:15:20;;;;;;;13.15;6.70;;;23.40;99.90;;;;;;5058305;28;20051;-62
2021/08/12 09:17:46;;;;;;;9.13;6.50;;;23.40;99.90;;;;;;5050779;28;20048;-62
2021/08/12 09:20:21;;;;;;;12.27;8.25;;;23.30;99.90;;;;;;5056764;28;20092;-62
2021/08/12 09:23:00;;;;;;;11.95;7.15;;;23.20;99.90;;;;;;5049973;28;20060;-62
2021/08/12 09:25:48;;;;;;;13.93;8.40;;;23.40;99.90;;;;;;5057089;28;20045;-62
2021/08/12 09:28:18;;;;;;;11.65;8.48;;;23.30;99.90;;;;;;5059568;28;20105;-62
2021/08/12 09:31:06;;;;;;;11.43;6.95;;;23.10;99.90;;;;;;5057930;28;20049;-62
2021/08/12 09:33:43;;;;;;;12.45;7.65;;;23.20;99.90;;;;;;5063026;28;20049;-62
2021/08/12 09:36:24;;;;;;;12.23;7.53;;;23.20;99.90;;;;;;5060109;28;20040;-62
2021/08/12 09:39:15;;;;;;;9.55;7.03;;;23.30;99.90;;;;;;5054701;28;20489;-62
2021/08/12 09:41:45;;;;;;;11.65;6.10;;;23.30;99.90;;;;;;5052521;28;20053;-62
2021/08/12 09:44:30;;;;;;;10.38;6.97;;;23.40;99.90;;;;;;5053174;28;20102;-62
2021/08/12 09:46:57;;;;;;;7.95;6.05;;;23.50;99.90;;;;;;5059776;28;20105;-62
2021/08/12 09:49:23;;;;;;;13.10;8.25;;;23.50;99.90;;;;;;5052203;28;20042;-62
2021/08/12 09:51:49;;;;;;;11.65;8.32;;;23.40;99.90;;;;;;5057940;28;20523;-62
2021/08/12 09:54:15;;;;;;;12.73;7.43;;;23.30;99.90;;;;;;5051254;28;20053;-62
2021/08/12 09:56:40;;;;;;;14.70;8.20;;;23.40;99.90;;;;;;5057432;28;20047;-62
2021/08/12 09:59:07;;;;;;;10.18;7.68;;;23.30;99.90;;;;;;5053225;28;20049;-62
2021/08/12 10:01:33;;;;;;;10.35;8.07;;;23.40;99.90;;;;;;5055046;28;20045;-62
2021/08/12 10:04:25;;;;;;;14.57;7.28;;;23.30;99.90;;;;;;5057736;28;20041;-62
2021/08/12 10:06:50;;;;;;;11.57;6.22;;;23.50;99.90;;;;;;5055554;28;20044;-61
2021/08/12 10:09:17;;;;;;;9.55;6.63;;;23.50;99.90;;;;;;5063224;28;20075;-62
2021/08/12 10:11:43;;;;;;;7.15;5.50;;;23.70;99.90;;;;;;5051846;28;20183;-62
2021/08/12 10:14:09;;;;;;;11.50;6.50;;;23.60;99.90;;;;;;5052771;28;20488;-62
2021/08/12 10:16:37;;;;;;;12.48;6.78;;;23.40;99.90;;;;;;5053084;28;20485;-62
2021/08/12 10:19:05;;;;;;;;;;;23.40;99.90;;;;;;5055832;28;20040;-62
2021/08/12 10:21:36;;;;;;;10.55;5.95;;;23.60;99.90;;;;;;5053114;28;19928;-62
2021/08/12 10:24:03;;;;;;;7.40;5.10;;;23.50;99.90;;;;;;5054089;28;20060;-62
2021/08/12 10:26:32;;;;;;;8.00;5.07;;;23.70;99.90;;;;;;5054494;28;20097;-62
2021/08/12 10:29:22;;;;;;;11.82;5.88;;;23.70;99.90;;;;;;5052017;28;20103;-62
2021/08/12 10:31:51;;;;;;;7.88;5.78;;;23.90;99.90;;;;;;5062455;28;20049;-62
2021/08/12 10:34:16;;;;;;;10.68;5.78;;;23.90;99.90;;;;;;5063810;28;20045;-63
2021/08/12 10:36:45;;;;;;;8.57;5.93;;;24.00;99.90;;;;;;5065118;28;20045;-62
2021/08/12 10:39:13;;;;;;;16.52;6.57;;;24.10;99.90;;;;;;5058398;28;20060;-62
2021/08/12 10:41:42;;;;;;;7.68;4.82;;;24.00;99.90;;;;;;5064909;28;20048;-62
2021/08/12 10:44:08;;;;;;;10.82;6.40;;;24.20;99.90;;;;;;5058001;28;20078;-62
2021/08/12 10:46:38;;;;;;;9.57;5.70;;;24.30;99.90;;;;;;5064439;28;20041;-61
2021/08/12 10:49:33;;;;;;;10.38;7.05;;;24.30;99.90;;;;;;5057943;28;20072;-62
2021/08/12 10:52:10;;;;;;;7.65;5.15;;;24.10;99.00;;;;;;5055946;28;20519;-62
2021/08/12 10:54:41;;;;;;;9.80;5.45;;;23.90;98.80;;;;;;5055750;28;20061;-63
2021/08/12 10:57:20;;;;;;;9.43;6.32;;;23.90;99.00;;;;;;5062581;28;20110;-61
2021/08/12 10:59:47;;;;;;;7.55;5.15;;;24.10;99.90;;;;;;5055227;28;20112;-62
2021/08/12 11:02:28;;;;;;;8.90;5.57;;;24.30;99.90;;;;;;5062080;28;20068;-62
2021/08/12 11:04:56;;;;;;;9.13;6.82;;;24.70;99.90;;;;;;5054358;28;20053;-62
2021/08/12 11:07:40;;;;;;;12.95;6.70;;;24.60;99.90;;;;;;5060753;28;20077;-62
2021/08/12 11:10:09;;;;;;;11.35;7.78;;;24.50;99.90;;;;;;5053420;28;20061;-61
2021/08/12 11:13:05;;;;;;;12.20;7.85;;;24.20;99.90;;;;;;5056575;28;20048;-62
2021/08/12 11:15:40;;;;;;;11.50;7.53;;;24.10;99.90;;;;;;5061502;28;20114;-62
2021/08/12 11:18:14;;;;;;;18.67;8.75;;;24.30;99.90;;;;;;5056377;28;20048;-61
2021/08/12 11:20:42;;;;;;;8.07;7.20;;;24.40;99.90;;;;;;5062623;28;20051;-61
2021/08/12 11:23:17;;;;;;;14.25;8.38;;;24.50;99.90;;;;;;5055714;28;20045;-62
2021/08/12 11:25:57;;;;;;;16.02;9.05;;;24.60;99.90;;;;;;5062110;28;20044;-61
2021/08/12 11:28:41;;;;;;;13.02;8.05;;;24.70;99.90;;;;;;5054913;28;20080;-61
2021/08/12 11:31:30;;;;;;;8.85;7.32;;;25.00;99.90;;;;;;5061313;28;20033;-62
2021/08/12 11:34:01;;;;;;;11.23;7.15;;;24.70;99.90;;;;;;5054559;28;20190;-62
2021/08/12 11:36:34;;;;;;;10.73;7.13;;;24.80;99.90;;;;;;5058326;28;20080;-61
2021/08/12 11:39:07;;;;;;;8.85;6.20;;;24.70;99.90;;;;;;5053385;28;20049;-62
2021/08/12 11:41:44;;;;;;;11.55;6.78;;;25.00;99.90;;;;;;5065969;28;20041;-62
2021/08/12 11:44:11;;;;;;;9.10;6.80;;;24.80;99.90;;;;;;5058449;28;20177;-62
2021/08/12 11:46:38;;;;;;;8.98;6.72;;;24.90;99.90;;;;;;5063830;28;20049;-62
2021/08/12 11:49:05;;;;;;;8.23;4.95;;;25.00;99.90;;;;;;5058613;28;20049;-62
2021/08/12 11:51:35;;;;;;;6.55;3.80;;;25.40;98.80;;;;;;5062891;28;20036;-62
2021/08/12 11:54:01;;;;;;;5.15;3.58;;;25.50;96.60;;;;;;5059203;28;20122;-62
2021/08/12 11:56:30;;;;;;;5.45;3.42;;;25.70;99.60;;;;;;5061529;28;20044;-62
2021/08/12 11:58:57;;;;;;;7.32;4.50;;;25.50;97.00;;;;;;5059729;28;20048;-62
2021/08/12 12:01:25;;;;;;;7.75;3.50;;;25.40;97.40;;;;;;5059005;28;20046;-62
2021/08/12 12:03:58;;;;;;;6.80;3.90;;;25.60;98.10;;;;;;5060548;28;20052;-62
2021/08/12 12:06:34;;;;;;;6.13;3.60;;;25.50;96.30;;;;;;5058262;28;20038;-62
2021/08/12 12:09:25;;;;;;;5.53;3.40;;;26.10;98.50;;;;;;5059643;28;20084;-62
2021/08/12 12:11:52;;;;;;;8.02;3.65;;;26.30;94.10;;;;;;5056050;28;20093;-62
2021/08/12 12:14:20;;;;;;;5.45;3.72;;;26.30;95.90;;;;;;5063821;28;20091;-63
2021/08/12 12:17:05;;;;;;;4.50;3.30;;;26.30;95.70;;;;;;5056866;28;20042;-62
2021/08/12 12:19:31;;;;;;;5.07;3.42;;;26.90;95.10;;;;;;5053858;28;20045;-62
2021/08/12 12:21:57;;;;;;;5.27;3.43;;;27.00;91.10;;;;;;5054905;28;20045;-62
2021/08/12 12:24:23;;;;;;;5.73;3.20;;;27.90;90.70;;;;;;5051535;28;20076;-62
2021/08/12 12:26:56;;;;;;;3.87;3.03;;;28.10;91.20;;;;;;5056852;28;20045;-62
2021/08/12 12:29:23;;;;;;;5.78;3.03;;;27.60;79.30;;;;;;5060299;28;20045;-62
2021/08/12 12:32:09;;;;;;;;;;;27.70;90.20;;;;;;5057209;28;20065;-62
2021/08/12 12:34:55;;;;;;;4.70;3.17;;;27.40;78.50;;;;;;5051205;28;19946;-62
2021/08/12 12:37:22;;;;;;;5.88;3.33;;;27.50;87.40;;;;;;5052314;28;20053;-62
2021/08/12 12:39:49;;;;;;;5.57;3.58;;;27.80;90.00;;;;;;5059613;28;20041;-62